Time;durP1;ratioP1;P1;durP2;ratioP2;P2;SDS_P1;SDS_P2;PMS_P1;PMS_P2;Temp;Humidity;BMP_temperature;BMP_pressure;BME280_temperature;BME280_humidity;BME280_pressure;Samples;Min_cycle;Max_cycle;Signal;HPM_P1;HPM_P2
2023/12/31 00:00:09;;;;;;;2.40;1.20;;;;;;;;;;5002750;28;20612;-68
2023/12/31 00:02:35;;;;;;;1.77;1.40;;;;;;;;;;5014793;28;20283;-69
2023/12/31 00:05:00;;;;;;;2.20;1.20;;;;;;;;;;5020130;28;20682;-69
2023/12/31 00:07:26;;;;;;;1.67;0.80;;;;;;;;;;5020242;28;20724;-69
2023/12/31 00:09:52;;;;;;;1.93;1.43;;;;;;;;;;5005335;28;20206;-69
2023/12/31 00:12:17;;;;;;;4.83;0.97;;;;;;;;;;5020504;28;20197;-69
2023/12/31 00:14:42;;;;;;;1.83;0.90;;;;;;;;;;5019111;28;20646;-69
2023/12/31 00:17:07;;;;;;;1.60;0.90;;;;;;;;;;5020674;28;20264;-69
2023/12/31 00:19:32;;;;;;;3.70;1.50;;;;;;;;;;5004807;28;20188;-69
2023/12/31 00:21:58;;;;;;;2.83;1.00;;;;;;;;;;5019805;28;20178;-69
2023/12/31 00:24:23;;;;;;;1.63;1.00;;;;;;;;;;5020809;28;20190;-69
2023/12/31 00:26:48;;;;;;;2.17;1.10;;;;;;;;;;5003189;28;20221;-69
2023/12/31 00:29:13;;;;;;;3.17;1.17;;;;;;;;;;5021849;28;20277;-68
2023/12/31 00:31:39;;;;;;;1.43;0.60;;;;;;;;;;5025356;28;20556;-70
2023/12/31 00:34:04;;;;;;;5.27;1.20;;;;;;;;;;5021583;28;20194;-69
2023/12/31 00:36:31;;;;;;;2.07;0.90;;;;;;;;;;5022995;28;20258;-69
2023/12/31 00:38:56;;;;;;;2.73;1.20;;;;;;;;;;5027948;28;20245;-68
2023/12/31 00:41:21;;;;;;;1.70;0.93;;;;;;;;;;5011252;28;20662;-69
2023/12/31 00:43:46;;;;;;;1.10;1.00;;;;;;;;;;5029153;28;20688;-69
2023/12/31 00:46:13;;;;;;;2.53;0.90;;;;;;;;;;5027447;28;20216;-70
2023/12/31 00:48:38;;;;;;;2.00;1.07;;;;;;;;;;5033999;28;20657;-70
2023/12/31 00:51:03;;;;;;;1.20;1.07;;;;;;;;;;5025748;28;20205;-70
2023/12/31 00:53:28;;;;;;;1.83;1.03;;;;;;;;;;5029453;28;20209;-70
2023/12/31 00:55:53;;;;;;;1.80;1.00;;;;;;;;;;5022939;28;20265;-69
2023/12/31 00:58:19;;;;;;;1.90;0.90;;;;;;;;;;5004776;28;20210;-69
2023/12/31 01:00:44;;;;;;;3.53;1.20;;;;;;;;;;5024491;28;20660;-70
2023/12/31 01:03:09;;;;;;;1.33;0.87;;;;;;;;;;5021967;28;21888;-70
2023/12/31 01:05:34;;;;;;;1.03;0.90;;;;;;;;;;5022493;28;20624;-69
2023/12/31 01:07:59;;;;;;;2.90;1.00;;;;;;;;;;5021366;28;20189;-70
2023/12/31 01:10:25;;;;;;;1.60;0.93;;;;;;;;;;5026053;28;20650;-70
2023/12/31 01:12:50;;;;;;;1.10;0.87;;;;;;;;;;5022916;28;20204;-69
2023/12/31 01:15:15;;;;;;;2.00;0.70;;;;;;;;;;5022547;28;20206;-70
2023/12/31 01:17:40;;;;;;;3.00;1.00;;;;;;;;;;5005897;28;20198;-70
2023/12/31 01:20:07;;;;;;;1.63;1.07;;;;;;;;;;5022576;28;20186;-69
2023/12/31 01:22:33;;;;;;;1.83;0.97;;;;;;;;;;5018998;28;20677;-70
2023/12/31 01:24:58;;;;;;;2.27;1.00;;;;;;;;;;5023217;28;20315;-69
2023/12/31 01:27:23;;;;;;;2.10;1.00;;;;;;;;;;5021451;28;20186;-69
2023/12/31 01:29:48;;;;;;;2.33;1.10;;;;;;;;;;5005042;28;20218;-69
2023/12/31 01:32:13;;;;;;;1.83;0.90;;;;;;;;;;5024120;28;20264;-69
2023/12/31 01:34:39;;;;;;;3.47;0.87;;;;;;;;;;5023711;28;20281;-69
2023/12/31 01:37:04;;;;;;;2.03;0.93;;;;;;;;;;5028762;28;20522;-70
2023/12/31 01:39:29;;;;;;;2.27;0.90;;;;;;;;;;5030103;28;20189;-70
2023/12/31 01:41:54;;;;;;;1.27;0.97;;;;;;;;;;5036359;28;20174;-70
2023/12/31 01:44:19;;;;;;;3.33;1.30;;;;;;;;;;5045826;28;20194;-69
2023/12/31 01:46:45;;;;;;;2.53;1.03;;;;;;;;;;5044101;28;20665;-69
2023/12/31 01:49:11;;;;;;;1.00;0.90;;;;;;;;;;5037114;28;20206;-70
2023/12/31 01:51:36;;;;;;;1.20;0.70;;;;;;;;;;5032388;28;20174;-68
2023/12/31 01:54:04;;;;;;;1.37;1.00;;;;;;;;;;5020235;28;20640;-68
2023/12/31 01:56:30;;;;;;;2.10;1.20;;;;;;;;;;5029115;28;20201;-68
2023/12/31 01:58:56;;;;;;;3.60;1.00;;;;;;;;;;5032648;28;20245;-70
2023/12/31 02:01:22;;;;;;;1.07;0.90;;;;;;;;;;5032960;28;20174;-69
2023/12/31 02:03:47;;;;;;;3.80;1.30;;;;;;;;;;5027867;28;20218;-69
2023/12/31 02:06:13;;;;;;;1.40;0.70;;;;;;;;;;5028964;28;20181;-68
2023/12/31 02:08:38;;;;;;;1.20;1.07;;;;;;;;;;5022222;28;20575;-69
2023/12/31 02:11:04;;;;;;;2.22;0.90;;;;;;;;;;5021518;28;20689;-69
2023/12/31 02:13:29;;;;;;;3.70;1.20;;;;;;;;;;5021225;28;20280;-68
2023/12/31 02:15:54;;;;;;;3.93;1.13;;;;;;;;;;5014224;28;20209;-69
2023/12/31 02:18:19;;;;;;;1.63;0.93;;;;;;;;;;5029170;28;20265;-70
2023/12/31 02:20:44;;;;;;;1.27;1.00;;;;;;;;;;5021139;28;20182;-70
2023/12/31 02:23:10;;;;;;;1.38;0.60;;;;;;;;;;5028961;28;20200;-70
2023/12/31 02:25:37;;;;;;;1.33;0.82;;;;;;;;;;5027296;28;20185;-68
2023/12/31 02:28:03;;;;;;;3.03;0.93;;;;;;;;;;5001972;28;20206;-68
2023/12/31 02:30:28;;;;;;;3.60;1.33;;;;;;;;;;5025896;28;20747;-69
2023/12/31 02:32:53;;;;;;;5.53;1.57;;;;;;;;;;5027542;28;20224;-68
2023/12/31 02:35:19;;;;;;;1.47;0.80;;;;;;;;;;5027670;28;20206;-69
2023/12/31 02:37:44;;;;;;;1.40;0.98;;;;;;;;;;5030097;28;20179;-69
2023/12/31 02:40:09;;;;;;;1.00;0.60;;;;;;;;;;5028729;28;20192;-69
2023/12/31 02:42:34;;;;;;;4.03;0.90;;;;;;;;;;5029188;28;20244;-68
2023/12/31 02:45:00;;;;;;;1.80;0.80;;;;;;;;;;5030043;28;20277;-68
2023/12/31 02:47:25;;;;;;;1.80;0.87;;;;;;;;;;5026628;28;20174;-69
2023/12/31 02:49:50;;;;;;;1.07;0.70;;;;;;;;;;5029670;28;20194;-69
2023/12/31 02:52:15;;;;;;;2.07;0.97;;;;;;;;;;5028000;28;20277;-69
2023/12/31 02:54:41;;;;;;;4.30;1.20;;;;;;;;;;5021968;28;20179;-68
2023/12/31 02:57:09;;;;;;;2.57;1.00;;;;;;;;;;5027322;28;20181;-69
2023/12/31 02:59:34;;;;;;;1.90;1.00;;;;;;;;;;5008814;28;20178;-70
2023/12/31 03:02:00;;;;;;;1.37;0.90;;;;;;;;;;5027505;28;20174;-68
2023/12/31 03:04:25;;;;;;;1.93;0.90;;;;;;;;;;5028456;28;20213;-69
2023/12/31 03:06:51;;;;;;;2.00;0.83;;;;;;;;;;5029473;28;20470;-68
2023/12/31 03:09:18;;;;;;;2.07;1.00;;;;;;;;;;5028278;28;20575;-70
2023/12/31 03:11:43;;;;;;;2.00;1.07;;;;;;;;;;5009248;28;20197;-70
2023/12/31 03:14:08;;;;;;;1.33;0.80;;;;;;;;;;5023922;28;20195;-70
2023/12/31 03:16:34;;;;;;;1.50;0.90;;;;;;;;;;5028970;28;20291;-70
2023/12/31 03:18:59;;;;;;;2.13;1.20;;;;;;;;;;5029937;28;20174;-69
2023/12/31 03:21:24;;;;;;;1.60;0.70;;;;;;;;;;5025978;28;20183;-69
2023/12/31 03:23:49;;;;;;;1.13;0.90;;;;;;;;;;5012304;28;20205;-71
2023/12/31 03:26:15;;;;;;;2.73;1.17;;;;;;;;;;5028936;28;20166;-68
2023/12/31 03:28:41;;;;;;;1.97;1.23;;;;;;;;;;5028134;28;20174;-69
2023/12/31 03:31:08;;;;;;;1.87;0.90;;;;;;;;;;5023904;28;20205;-69
2023/12/31 03:33:33;;;;;;;2.83;0.93;;;;;;;;;;5025444;28;20198;-69
2023/12/31 03:35:58;;;;;;;2.93;1.30;;;;;;;;;;5029344;28;20177;-69
2023/12/31 03:38:23;;;;;;;1.43;0.77;;;;;;;;;;5029013;28;20186;-68
2023/12/31 03:40:48;;;;;;;0.90;0.80;;;;;;;;;;5026833;28;20768;-68
2023/12/31 03:43:13;;;;;;;1.07;0.77;;;;;;;;;;5028434;28;20197;-69
2023/12/31 03:45:39;;;;;;;1.97;1.10;;;;;;;;;;5034078;28;20595;-69
2023/12/31 03:48:04;;;;;;;1.70;1.00;;;;;;;;;;5011403;28;20190;-69
2023/12/31 03:50:30;;;;;;;3.53;1.40;;;;;;;;;;5022091;28;20290;-69
2023/12/31 03:52:55;;;;;;;0.83;0.70;;;;;;;;;;5011427;28;20193;-70
2023/12/31 03:55:20;;;;;;;2.40;1.00;;;;;;;;;;5007858;28;20174;-69
2023/12/31 03:57:45;;;;;;;1.87;1.00;;;;;;;;;;5025322;28;20200;-69
2023/12/31 04:00:11;;;;;;;1.60;1.00;;;;;;;;;;5030329;28;20174;-69
2023/12/31 04:02:36;;;;;;;4.10;1.23;;;;;;;;;;5024811;28;20206;-68
2023/12/31 04:05:03;;;;;;;2.13;1.20;;;;;;;;;;5023093;28;20179;-68
2023/12/31 04:07:28;;;;;;;1.43;0.90;;;;;;;;;;5023107;28;20182;-69
2023/12/31 04:09:53;;;;;;;1.73;0.87;;;;;;;;;;5026614;28;20248;-69
2023/12/31 04:12:19;;;;;;;1.40;0.80;;;;;;;;;;5027349;28;20692;-69
2023/12/31 04:14:44;;;;;;;3.13;1.23;;;;;;;;;;5020408;28;20174;-69
2023/12/31 04:17:09;;;;;;;1.77;1.23;;;;;;;;;;5028510;28;20205;-68
2023/12/31 04:19:34;;;;;;;1.90;1.10;;;;;;;;;;5028221;28;20529;-70
2023/12/31 04:21:59;;;;;;;3.63;1.13;;;;;;;;;;5027593;28;20206;-69
2023/12/31 04:24:25;;;;;;;1.13;0.97;;;;;;;;;;5024052;28;20200;-69
2023/12/31 04:26:50;;;;;;;1.27;1.00;;;;;;;;;;5029537;28;20183;-70
2023/12/31 04:29:15;;;;;;;2.30;1.00;;;;;;;;;;5023867;28;20198;-68
2023/12/31 04:31:45;;;;;;;1.87;1.20;;;;;;;;;;5006744;28;20178;-70
2023/12/31 04:34:10;;;;;;;1.87;1.27;;;;;;;;;;5023522;28;20212;-68
2023/12/31 04:36:36;;;;;;;3.17;1.30;;;;;;;;;;5026410;28;20586;-69
2023/12/31 04:39:01;;;;;;;2.27;1.00;;;;;;;;;;5028795;28;20671;-69
2023/12/31 04:41:26;;;;;;;4.23;1.13;;;;;;;;;;5030212;28;20545;-69
2023/12/31 04:43:51;;;;;;;5.27;1.63;;;;;;;;;;5027932;28;20202;-68
2023/12/31 04:46:17;;;;;;;1.13;0.90;;;;;;;;;;5026609;28;20217;-69
2023/12/31 04:48:42;;;;;;;1.30;1.00;;;;;;;;;;5027833;28;20206;-69
2023/12/31 04:51:07;;;;;;;2.20;1.17;;;;;;;;;;5027301;28;20198;-68
2023/12/31 04:53:33;;;;;;;2.50;0.90;;;;;;;;;;5019459;28;20194;-67
2023/12/31 04:55:58;;;;;;;2.50;1.40;;;;;;;;;;5015080;28;20182;-69
2023/12/31 04:58:23;;;;;;;1.77;1.10;;;;;;;;;;5006348;28;20177;-68
2023/12/31 05:00:49;;;;;;;1.33;1.10;;;;;;;;;;5025915;28;20200;-69
2023/12/31 05:03:14;;;;;;;0.70;0.70;;;;;;;;;;5031339;28;20221;-69
2023/12/31 05:05:39;;;;;;;0.93;0.70;;;;;;;;;;5030094;28;20180;-68
2023/12/31 05:08:04;;;;;;;1.53;1.03;;;;;;;;;;5032232;28;20170;-69
2023/12/31 05:10:29;;;;;;;1.47;1.00;;;;;;;;;;5027502;28;20203;-68
2023/12/31 05:12:55;;;;;;;3.00;1.00;;;;;;;;;;5027936;28;20289;-70
2023/12/31 05:15:20;;;;;;;2.70;1.30;;;;;;;;;;5010889;28;20182;-68
2023/12/31 05:17:45;;;;;;;1.80;1.40;;;;;;;;;;5031178;28;20175;-69
2023/12/31 05:20:11;;;;;;;1.83;1.30;;;;;;;;;;5036354;28;20232;-68
2023/12/31 05:22:36;;;;;;;1.97;1.20;;;;;;;;;;5031847;28;20202;-69
2023/12/31 05:25:01;;;;;;;1.37;1.13;;;;;;;;;;5030403;28;20178;-69
2023/12/31 05:27:26;;;;;;;1.43;1.00;;;;;;;;;;5032969;28;20205;-69
2023/12/31 05:29:51;;;;;;;3.20;1.40;;;;;;;;;;5030752;28;20699;-69
2023/12/31 05:32:17;;;;;;;2.50;1.50;;;;;;;;;;5012431;28;20206;-69
2023/12/31 05:34:42;;;;;;;1.47;1.00;;;;;;;;;;5009838;28;20178;-68
2023/12/31 05:37:07;;;;;;;2.23;1.30;;;;;;;;;;5027429;28;20163;-70
2023/12/31 05:39:33;;;;;;;1.93;1.30;;;;;;;;;;5031391;28;20196;-69
2023/12/31 05:41:58;;;;;;;3.00;1.27;;;;;;;;;;5029647;28;20220;-70
2023/12/31 05:44:23;;;;;;;1.77;1.13;;;;;;;;;;5031510;28;20205;-69
2023/12/31 05:46:48;;;;;;;2.67;1.43;;;;;;;;;;5030407;28;20186;-69
2023/12/31 05:49:13;;;;;;;1.53;1.30;;;;;;;;;;5031054;28;20178;-69
2023/12/31 05:51:39;;;;;;;1.67;1.10;;;;;;;;;;5008352;28;20174;-69
2023/12/31 05:54:04;;;;;;;1.67;1.27;;;;;;;;;;5022724;28;20568;-68
2023/12/31 05:56:29;;;;;;;2.57;1.50;;;;;;;;;;5022725;28;20209;-68
2023/12/31 05:58:54;;;;;;;2.67;1.80;;;;;;;;;;5027580;28;20289;-69
2023/12/31 06:01:21;;;;;;;2.13;1.40;;;;;;;;;;5027589;28;20265;-70
2023/12/31 06:03:46;;;;;;;2.57;1.40;;;;;;;;;;5028496;28;20289;-68
2023/12/31 06:06:11;;;;;;;4.97;1.30;;;;;;;;;;5027116;28;20194;-69
2023/12/31 06:08:37;;;;;;;2.70;1.40;;;;;;;;;;5011038;28;20174;-68
2023/12/31 06:11:02;;;;;;;2.97;1.50;;;;;;;;;;5024906;28;20207;-68
2023/12/31 06:13:27;;;;;;;2.13;1.57;;;;;;;;;;5030321;28;20677;-68
2023/12/31 06:15:52;;;;;;;3.43;1.67;;;;;;;;;;5018841;28;20172;-69
2023/12/31 06:18:17;;;;;;;3.37;1.40;;;;;;;;;;5030426;28;20179;-69
2023/12/31 06:20:43;;;;;;;1.80;1.70;;;;;;;;;;5025672;28;20684;-69
2023/12/31 06:23:08;;;;;;;4.03;1.40;;;;;;;;;;5030222;28;20244;-68
2023/12/31 06:25:33;;;;;;;1.80;1.47;;;;;;;;;;5024005;28;20231;-69
2023/12/31 06:27:58;;;;;;;5.03;2.03;;;;;;;;;;5027526;28;20273;-69
2023/12/31 06:30:23;;;;;;;1.87;1.60;;;;;;;;;;5030038;28;20300;-69
2023/12/31 06:32:50;;;;;;;1.67;1.30;;;;;;;;;;5017943;28;20229;-70
2023/12/31 06:35:15;;;;;;;4.50;1.73;;;;;;;;;;5008836;28;20179;-70
2023/12/31 06:37:40;;;;;;;2.03;1.50;;;;;;;;;;5020339;28;20810;-70
2023/12/31 06:40:05;;;;;;;3.83;2.00;;;;;;;;;;5029447;28;20178;-69
2023/12/31 06:42:31;;;;;;;1.70;1.50;;;;;;;;;;5030621;28;20205;-70
2023/12/31 06:44:57;;;;;;;2.23;1.80;;;;;;;;;;5010580;28;20574;-70
2023/12/31 06:47:22;;;;;;;2.23;1.83;;;;;;;;;;5030923;28;20236;-69
2023/12/31 06:49:47;;;;;;;2.73;1.77;;;;;;;;;;5006745;28;20213;-68
2023/12/31 06:52:13;;;;;;;7.63;1.60;;;;;;;;;;5027846;28;20174;-69
2023/12/31 06:54:39;;;;;;;1.97;1.70;;;;;;;;;;5011262;28;20317;-69
2023/12/31 06:57:04;;;;;;;2.93;2.00;;;;;;;;;;5015957;28;20175;-69
2023/12/31 06:59:29;;;;;;;2.73;1.63;;;;;;;;;;5022840;28;20558;-69
2023/12/31 07:01:54;;;;;;;2.30;1.70;;;;;;;;;;5015625;28;20280;-69
2023/12/31 07:04:20;;;;;;;3.77;2.23;;;;;;;;;;5027803;28;20221;-69
2023/12/31 07:06:45;;;;;;;2.60;2.00;;;;;;;;;;5026271;28;20642;-70
2023/12/31 07:09:11;;;;;;;2.87;1.80;;;;;;;;;;5028298;28;20198;-69
2023/12/31 07:11:37;;;;;;;2.33;1.80;;;;;;;;;;5009515;28;20179;-70
2023/12/31 07:14:02;;;;;;;2.50;1.83;;;;;;;;;;5026119;28;20197;-68
2023/12/31 07:16:27;;;;;;;2.10;1.47;;;;;;;;;;5024077;28;20619;-69
2023/12/31 07:18:53;;;;;;;3.67;1.83;;;;;;;;;;5029487;28;20234;-68
2023/12/31 07:21:22;;;;;;;4.87;1.80;;;;;;;;;;5001644;28;20534;-68
2023/12/31 07:23:47;;;;;;;5.20;1.90;;;;;;;;;;5027208;28;20189;-68
2023/12/31 07:26:22;;;;;;;1.80;1.57;;;;;;;;;;5027041;28;20220;-69
2023/12/31 07:28:47;;;;;;;2.20;1.83;;;;;;;;;;5022255;28;20182;-68
2023/12/31 07:31:12;;;;;;;2.40;1.67;;;;;;;;;;5029000;28;20704;-68
2023/12/31 07:33:38;;;;;;;2.40;1.80;;;;;;;;;;5027046;28;20205;-68
2023/12/31 07:36:03;;;;;;;3.47;1.93;;;;;;;;;;5010982;28;20170;-68
2023/12/31 07:38:28;;;;;;;2.20;2.00;;;;;;;;;;5023501;28;20209;-69
2023/12/31 07:40:53;;;;;;;2.37;1.60;;;;;;;;;;5019312;28;20185;-69
2023/12/31 07:43:18;;;;;;;2.67;1.87;;;;;;;;;;5019169;28;20707;-70
2023/12/31 07:45:44;;;;;;;2.53;1.80;;;;;;;;;;5022942;28;20190;-69
2023/12/31 07:48:11;;;;;;;3.53;2.37;;;;;;;;;;5021672;28;20187;-70
2023/12/31 07:50:36;;;;;;;2.50;1.50;;;;;;;;;;5020920;28;20202;-69
2023/12/31 07:53:02;;;;;;;2.87;1.70;;;;;;;;;;5020113;28;20190;-68
2023/12/31 07:55:27;;;;;;;2.27;1.97;;;;;;;;;;5020554;28;20177;-68
2023/12/31 07:57:52;;;;;;;2.03;1.47;;;;;;;;;;5001921;28;20183;-68
2023/12/31 08:00:17;;;;;;;2.80;1.30;;;;;;;;;;5017196;28;20198;-70
2023/12/31 08:02:43;;;;;;;2.97;1.90;;;;;;;;;;5021591;28;20271;-69
2023/12/31 08:05:08;;;;;;;1.87;1.57;;;;;;;;;;5004756;28;20622;-69
2023/12/31 08:07:33;;;;;;;2.13;1.60;;;;;;;;;;5020320;28;20263;-70
2023/12/31 08:09:59;;;;;;;2.27;1.90;;;;;;;;;;5018620;28;20217;-70
2023/12/31 08:12:24;;;;;;;2.57;1.73;;;;;;;;;;5023664;28;20175;-69
2023/12/31 08:14:50;;;;;;;2.80;1.93;;;;;;;;;;5029373;28;20178;-68
2023/12/31 08:17:15;;;;;;;1.50;1.40;;;;;;;;;;5008049;28;20641;-68
2023/12/31 08:19:40;;;;;;;1.80;1.70;;;;;;;;;;5026957;28;20704;-69
2023/12/31 08:22:06;;;;;;;1.77;1.50;;;;;;;;;;5011051;28;20182;-69
2023/12/31 08:24:32;;;;;;;1.97;1.67;;;;;;;;;;5029623;28;20194;-69
2023/12/31 08:26:57;;;;;;;3.87;1.90;;;;;;;;;;5025247;28;20680;-69
2023/12/31 08:29:22;;;;;;;2.70;1.80;;;;;;;;;;5025659;28;20190;-69
2023/12/31 08:31:48;;;;;;;1.90;1.67;;;;;;;;;;5014172;28;20189;-68
2023/12/31 08:34:15;;;;;;;3.00;1.60;;;;;;;;;;5023540;28;20598;-69
2023/12/31 08:36:41;;;;;;;2.55;1.73;;;;;;;;;;5015983;28;20183;-68
2023/12/31 08:39:06;;;;;;;2.10;1.60;;;;;;;;;;5019703;28;20185;-69
2023/12/31 08:41:32;;;;;;;2.67;1.80;;;;;;;;;;5020033;28;20669;-68
2023/12/31 08:43:57;;;;;;;2.63;2.00;;;;;;;;;;5020073;28;20205;-68
2023/12/31 08:46:22;;;;;;;3.73;1.83;;;;;;;;;;5021664;28;20179;-69
2023/12/31 08:48:47;;;;;;;2.00;1.80;;;;;;;;;;5006191;28;21638;-69
2023/12/31 08:51:12;;;;;;;2.58;1.60;;;;;;;;;;5007305;28;20202;-68
2023/12/31 08:53:38;;;;;;;2.83;2.00;;;;;;;;;;5019941;28;20198;-69
2023/12/31 08:56:03;;;;;;;1.93;1.47;;;;;;;;;;5021600;28;20177;-68
2023/12/31 08:58:29;;;;;;;1.93;1.60;;;;;;;;;;5024719;28;20275;-69
2023/12/31 09:00:55;;;;;;;2.07;1.30;;;;;;;;;;5028005;28;20185;-69
2023/12/31 09:03:20;;;;;;;2.17;1.50;;;;;;;;;;5030850;28;20209;-69
2023/12/31 09:05:46;;;;;;;2.07;1.80;;;;;;;;;;5015199;28;20199;-69
2023/12/31 09:08:11;;;;;;;2.30;1.50;;;;;;;;;;5013861;28;20248;-70
2023/12/31 09:10:36;;;;;;;1.07;0.90;;;;;;;;;;5033941;28;20240;-69
2023/12/31 09:13:03;;;;;;;1.37;0.60;;;;;;;;;;5031471;28;20210;-70
2023/12/31 09:15:28;;;;;;;1.07;0.53;;;;;;;;;;5014329;28;20189;-69
2023/12/31 09:17:53;;;;;;;1.20;0.70;;;;;;;;;;5032199;28;20182;-70
2023/12/31 09:20:18;;;;;;;1.50;0.50;;;;;;;;;;5007128;28;20193;-70
2023/12/31 09:22:44;;;;;;;0.50;0.50;;;;;;;;;;5029283;28;20232;-69
2023/12/31 09:25:09;;;;;;;1.10;0.70;;;;;;;;;;5029077;28;20182;-70
2023/12/31 09:27:34;;;;;;;0.77;0.50;;;;;;;;;;5033974;28;20258;-70
2023/12/31 09:30:00;;;;;;;1.27;0.70;;;;;;;;;;5031570;28;20755;-69
2023/12/31 09:32:25;;;;;;;0.73;0.60;;;;;;;;;;5024635;28;20187;-70
2023/12/31 09:34:50;;;;;;;1.67;0.90;;;;;;;;;;5027133;28;20181;-70
2023/12/31 09:37:19;;;;;;;0.80;0.50;;;;;;;;;;5031992;28;20229;-69
2023/12/31 09:39:44;;;;;;;1.23;0.60;;;;;;;;;;5000922;28;20186;-70
2023/12/31 09:42:11;;;;;;;1.93;1.00;;;;;;;;;;5026510;28;20182;-70
2023/12/31 09:44:37;;;;;;;2.13;0.70;;;;;;;;;;5032300;28;20174;-70
2023/12/31 09:47:05;;;;;;;4.13;0.67;;;;;;;;;;5031879;28;20186;-70
2023/12/31 09:49:31;;;;;;;1.30;0.50;;;;;;;;;;5023788;28;20206;-69
2023/12/31 09:51:58;;;;;;;1.77;0.60;;;;;;;;;;5027851;28;20217;-69
2023/12/31 09:54:23;;;;;;;1.47;0.90;;;;;;;;;;5029814;28;20673;-70
2023/12/31 09:56:50;;;;;;;0.50;0.40;;;;;;;;;;5031245;28;20183;-69
2023/12/31 09:59:16;;;;;;;0.67;0.53;;;;;;;;;;5031111;28;20647;-70
2023/12/31 10:01:42;;;;;;;0.93;0.70;;;;;;;;;;5030820;28;20246;-70
2023/12/31 10:04:08;;;;;;;1.53;0.60;;;;;;;;;;5034677;28;20212;-70
2023/12/31 10:06:34;;;;;;;2.20;0.90;;;;;;;;;;5026762;28;20261;-70
2023/12/31 10:09:00;;;;;;;6.97;1.20;;;;;;;;;;5031545;28;20178;-70
2023/12/31 10:11:26;;;;;;;0.87;0.60;;;;;;;;;;5024911;28;20202;-69
2023/12/31 10:13:51;;;;;;;2.80;1.03;;;;;;;;;;5030997;28;20217;-69
2023/12/31 10:16:16;;;;;;;3.00;1.10;;;;;;;;;;5032100;28;20174;-69
2023/12/31 10:18:41;;;;;;;2.27;0.90;;;;;;;;;;5030162;28;20171;-69
2023/12/31 10:21:08;;;;;;;1.70;0.60;;;;;;;;;;5030498;28;20269;-68
2023/12/31 10:23:34;;;;;;;1.77;0.70;;;;;;;;;;5012553;28;20303;-69
2023/12/31 10:25:59;;;;;;;1.60;0.90;;;;;;;;;;5030847;28;20213;-70
2023/12/31 10:28:24;;;;;;;2.80;0.90;;;;;;;;;;5030429;28;20178;-69
2023/12/31 10:30:49;;;;;;;1.87;0.87;;;;;;;;;;5030595;28;20681;-70
2023/12/31 10:33:15;;;;;;;3.53;1.03;;;;;;;;;;5030499;28;20232;-70
2023/12/31 10:35:41;;;;;;;1.27;1.00;;;;;;;;;;5030202;28;20232;-69
2023/12/31 10:38:07;;;;;;;2.27;0.73;;;;;;;;;;5033226;28;20253;-70
2023/12/31 10:40:35;;;;;;;1.53;0.80;;;;;;;;;;5030134;28;20661;-70
2023/12/31 10:43:05;;;;;;;2.27;0.87;;;;;;;;;;5030707;28;20202;-69
2023/12/31 10:45:32;;;;;;;1.67;1.00;;;;;;;;;;5030266;28;20202;-70
2023/12/31 10:48:01;;;;;;;3.07;1.00;;;;;;;;;;5018833;28;20179;-70
2023/12/31 10:50:27;;;;;;;1.03;0.67;;;;;;;;;;5013374;28;20539;-70
2023/12/31 10:52:59;;;;;;;2.20;0.90;;;;;;;;;;5029987;28;20198;-69
2023/12/31 10:55:25;;;;;;;1.23;0.80;;;;;;;;;;5027966;28;20677;-70
2023/12/31 10:57:52;;;;;;;0.70;0.50;;;;;;;;;;5029480;28;20203;-69
2023/12/31 11:00:19;;;;;;;3.33;1.13;;;;;;;;;;5012436;28;20182;-69
2023/12/31 11:02:44;;;;;;;0.90;0.70;;;;;;;;;;5007704;28;20308;-69
2023/12/31 11:05:09;;;;;;;1.30;0.70;;;;;;;;;;5026886;28;20183;-69
2023/12/31 11:07:35;;;;;;;1.30;0.53;;;;;;;;;;5030363;28;20297;-70
2023/12/31 11:10:01;;;;;;;1.13;0.80;;;;;;;;;;5029820;28;20198;-69
2023/12/31 11:12:26;;;;;;;0.70;0.40;;;;;;;;;;5028569;28;20574;-68
2023/12/31 11:14:54;;;;;;;0.40;0.40;;;;;;;;;;5030803;28;20171;-69
2023/12/31 11:17:22;;;;;;;1.20;0.30;;;;;;;;;;5030836;28;20177;-71
2023/12/31 11:19:50;;;;;;;0.97;0.50;;;;;;;;;;5030712;28;20174;-69
2023/12/31 11:22:24;;;;;;;0.47;0.30;;;;;;;;;;5030948;28;20179;-68
2023/12/31 11:24:53;;;;;;;0.47;0.37;;;;;;;;;;5024676;28;20213;-70
2023/12/31 11:27:19;;;;;;;1.20;0.30;;;;;;;;;;5025282;28;20549;-70
2023/12/31 11:29:46;;;;;;;1.00;0.30;;;;;;;;;;5029683;28;20198;-69
2023/12/31 11:32:11;;;;;;;4.23;0.80;;;;;;;;;;5009344;28;20179;-68
2023/12/31 11:34:40;;;;;;;2.03;0.77;;;;;;;;;;5028523;28;20269;-68
2023/12/31 11:37:06;;;;;;;2.63;0.50;;;;;;;;;;5010155;28;20548;-69
2023/12/31 11:39:32;;;;;;;0.97;0.53;;;;;;;;;;5012661;28;20178;-69
2023/12/31 11:42:00;;;;;;;2.20;0.47;;;;;;;;;;5009953;28;20178;-69
2023/12/31 11:44:37;;;;;;;1.70;0.50;;;;;;;;;;5029651;28;20213;-70
2023/12/31 11:47:03;;;;;;;1.90;0.70;;;;;;;;;;5020717;28;20270;-70
2023/12/31 11:49:28;;;;;;;2.07;1.20;;;;;;;;;;5024766;28;20257;-69
2023/12/31 11:51:57;;;;;;;1.90;0.40;;;;;;;;;;5031970;28;20224;-70
2023/12/31 11:54:22;;;;;;;6.53;0.90;;;;;;;;;;5029157;28;20664;-70
2023/12/31 11:56:48;;;;;;;2.27;0.90;;;;;;;;;;5012847;28;20274;-70
2023/12/31 11:59:14;;;;;;;2.00;0.63;;;;;;;;;;5029584;28;20182;-70
2023/12/31 12:01:40;;;;;;;4.53;0.80;;;;;;;;;;5019466;28;20183;-70
2023/12/31 12:04:06;;;;;;;1.43;0.60;;;;;;;;;;5035974;28;20205;-70
2023/12/31 12:06:31;;;;;;;1.77;1.30;;;;;;;;;;5030039;28;20185;-70
2023/12/31 12:08:56;;;;;;;3.10;1.30;;;;;;;;;;5029811;28;20182;-71
2023/12/31 12:11:23;;;;;;;3.50;1.40;;;;;;;;;;5030698;28;20214;-70
2023/12/31 12:13:48;;;;;;;3.97;1.03;;;;;;;;;;5011982;28;20224;-70
2023/12/31 12:16:14;;;;;;;3.43;1.27;;;;;;;;;;5023823;28;20182;-70
2023/12/31 12:18:39;;;;;;;1.37;0.60;;;;;;;;;;5029453;28;20191;-70
2023/12/31 12:21:04;;;;;;;2.03;1.23;;;;;;;;;;5028776;28;20182;-70
2023/12/31 12:23:29;;;;;;;4.00;1.30;;;;;;;;;;5032562;28;20198;-70
2023/12/31 12:25:57;;;;;;;3.00;0.60;;;;;;;;;;5033616;28;20186;-70
2023/12/31 12:28:23;;;;;;;5.50;0.67;;;;;;;;;;5031849;28;20849;-69
2023/12/31 12:30:48;;;;;;;3.70;0.90;;;;;;;;;;5034777;28;20657;-70
2023/12/31 12:33:14;;;;;;;5.63;1.10;;;;;;;;;;5024709;28;20278;-70
2023/12/31 12:35:39;;;;;;;4.70;0.87;;;;;;;;;;5015600;28;20174;-70
2023/12/31 12:38:05;;;;;;;2.53;0.60;;;;;;;;;;5015474;28;20700;-71
2023/12/31 12:40:31;;;;;;;3.33;0.87;;;;;;;;;;5033563;28;20240;-70
2023/12/31 12:42:59;;;;;;;3.93;0.90;;;;;;;;;;5033368;28;20229;-71
2023/12/31 12:45:24;;;;;;;1.63;0.60;;;;;;;;;;5032999;28;20209;-70
2023/12/31 12:47:49;;;;;;;2.63;1.03;;;;;;;;;;5015442;28;20220;-70
2023/12/31 12:50:14;;;;;;;4.00;1.37;;;;;;;;;;5013556;28;20202;-70
2023/12/31 12:52:40;;;;;;;5.47;1.30;;;;;;;;;;5030667;28;20538;-70
2023/12/31 12:55:06;;;;;;;2.20;1.10;;;;;;;;;;5028752;28;20174;-68
2023/12/31 12:57:31;;;;;;;6.87;1.43;;;;;;;;;;5014153;28;20178;-70
2023/12/31 12:59:56;;;;;;;3.37;0.90;;;;;;;;;;5033357;28;20693;-69
2023/12/31 13:02:21;;;;;;;3.70;0.73;;;;;;;;;;5025293;28;20181;-70
2023/12/31 13:04:47;;;;;;;1.80;0.67;;;;;;;;;;5029316;28;20185;-70
2023/12/31 13:07:12;;;;;;;5.40;1.40;;;;;;;;;;5015669;28;20178;-70
2023/12/31 13:09:38;;;;;;;2.57;0.90;;;;;;;;;;5033436;28;20276;-71
2023/12/31 13:12:04;;;;;;;3.43;1.00;;;;;;;;;;5032521;28;20189;-70
2023/12/31 13:14:29;;;;;;;2.00;0.80;;;;;;;;;;5032026;28;20201;-71
2023/12/31 13:16:54;;;;;;;6.37;1.30;;;;;;;;;;5032116;28;20277;-70
2023/12/31 13:19:20;;;;;;;1.83;0.87;;;;;;;;;;5032669;28;20178;-71
2023/12/31 13:21:45;;;;;;;4.33;1.10;;;;;;;;;;5010210;28;20190;-70
2023/12/31 13:24:10;;;;;;;2.93;1.07;;;;;;;;;;5029555;28;20194;-69
2023/12/31 13:26:35;;;;;;;6.13;1.33;;;;;;;;;;5032574;28;20235;-70
2023/12/31 13:29:01;;;;;;;4.80;1.10;;;;;;;;;;5030960;28;20181;-69
2023/12/31 13:31:28;;;;;;;2.83;1.30;;;;;;;;;;5033111;28;20688;-70
2023/12/31 13:33:54;;;;;;;2.60;1.07;;;;;;;;;;5009324;28;20202;-70
2023/12/31 13:36:19;;;;;;;2.80;0.90;;;;;;;;;;5027951;28;20185;-70
2023/12/31 13:38:44;;;;;;;2.33;0.80;;;;;;;;;;5011240;28;20182;-70
2023/12/31 13:41:09;;;;;;;6.77;3.50;;;;;;;;;;5028173;28;20665;-70
2023/12/31 13:43:34;;;;;;;4.03;0.93;;;;;;;;;;5022034;28;20229;-70
2023/12/31 13:46:00;;;;;;;2.53;0.97;;;;;;;;;;5012389;28;20569;-69
2023/12/31 13:48:25;;;;;;;1.80;0.85;;;;;;;;;;5026907;28;20185;-71
2023/12/31 13:50:50;;;;;;;6.13;1.13;;;;;;;;;;5015331;28;20248;-70
2023/12/31 13:53:16;;;;;;;8.10;1.30;;;;;;;;;;5014752;28;20194;-71
2023/12/31 13:55:41;;;;;;;4.07;0.90;;;;;;;;;;5031716;28;20236;-71
2023/12/31 13:58:08;;;;;;;3.40;0.90;;;;;;;;;;5029861;28;20649;-71
2023/12/31 14:00:33;;;;;;;4.53;1.30;;;;;;;;;;5030229;28;20762;-70
2023/12/31 14:02:58;;;;;;;6.80;2.03;;;;;;;;;;5025560;28;20212;-73
2023/12/31 14:05:24;;;;;;;8.70;2.00;;;;;;;;;;5027746;28;20178;-72
2023/12/31 14:07:49;;;;;;;4.60;1.50;;;;;;;;;;5031722;28;20183;-72
2023/12/31 14:10:14;;;;;;;2.70;1.17;;;;;;;;;;5013998;28;20234;-72
2023/12/31 14:12:39;;;;;;;2.40;0.80;;;;;;;;;;5014893;28;20194;-73
2023/12/31 14:15:06;;;;;;;4.33;1.30;;;;;;;;;;5031696;28;20177;-71
2023/12/31 14:17:31;;;;;;;4.60;1.50;;;;;;;;;;5029577;28;20189;-72
2023/12/31 14:19:57;;;;;;;12.93;1.50;;;;;;;;;;5030418;28;20170;-72
2023/12/31 14:22:22;;;;;;;4.67;1.37;;;;;;;;;;5025060;28;20183;-72
2023/12/31 14:24:47;;;;;;;1.77;0.90;;;;;;;;;;5029257;28;20178;-72
2023/12/31 14:27:12;;;;;;;4.27;1.20;;;;;;;;;;5032721;28;20178;-72
2023/12/31 14:29:37;;;;;;;8.00;1.27;;;;;;;;;;5029543;28;20354;-72
2023/12/31 14:32:03;;;;;;;4.30;1.00;;;;;;;;;;5032633;28;20240;-72